Terminal Aerodrome Forecast
Issued by NWS Mt. Holly, NJ

Home | Current Version | Previous Version | Text Only | Print | Product List | Glossary On
Versions: 1 2 3 4 5 6 7 8 9 10 11 12 13 14 15 16 17 18 19 20 21 22
000
FTUS41 KPHI 220600 AAA
TAFRDG
TAF AMD
KRDG 220605Z 2206/2306 15003KT P6SM SKC
      TEMPO 2207/2210 5SM BR BKN045
     FM221000 00000KT 3SM BR SCT007 BKN015
     FM221400 21005KT P6SM FEW045
      TEMPO 2216/2220 BKN045
     FM222200 19003KT P6SM FEW250=

USA.gov is the U.S. government's official web portal to all federal, state and local government web resources and services.